createdAt,value
2023-12-11T00:00:25.802Z,1.50
2023-12-11T00:02:52.466Z,2.20
2023-12-11T00:05:19.171Z,2.27
2023-12-11T00:07:45.849Z,2.20
2023-12-11T00:10:12.616Z,1.77
2023-12-11T00:12:39.570Z,1.73
2023-12-11T00:15:06.696Z,1.83
2023-12-11T00:17:33.799Z,2.87
2023-12-11T00:20:00.858Z,1.60
2023-12-11T00:22:27.549Z,1.83
2023-12-11T00:24:54.385Z,1.80
2023-12-11T00:27:21.156Z,1.80
2023-12-11T00:29:47.777Z,1.67
2023-12-11T00:32:14.467Z,1.67
2023-12-11T00:34:41.334Z,1.30
2023-12-11T00:37:08.501Z,1.13
2023-12-11T00:39:35.216Z,2.80
2023-12-11T00:42:01.895Z,2.97
2023-12-11T00:44:28.604Z,1.87
2023-12-11T00:46:55.300Z,3.50
2023-12-11T00:49:22.094Z,1.43
2023-12-11T00:51:53.887Z,1.80
2023-12-11T00:54:20.775Z,1.37
2023-12-11T00:56:47.437Z,1.80
2023-12-11T00:59:14.144Z,3.23
2023-12-11T01:01:40.899Z,1.57
2023-12-11T01:04:09.324Z,2.47
2023-12-11T01:06:36.098Z,1.40
2023-12-11T01:09:02.750Z,2.23
2023-12-11T01:11:29.374Z,1.60
2023-12-11T01:13:56.106Z,1.73
2023-12-11T01:16:22.857Z,1.77
2023-12-11T01:18:49.723Z,1.57
2023-12-11T01:21:16.515Z,2.90
2023-12-11T01:23:43.762Z,1.43
2023-12-11T01:26:11.052Z,1.40
2023-12-11T01:28:37.792Z,1.27
2023-12-11T01:31:04.591Z,1.53
2023-12-11T01:33:31.440Z,2.27
2023-12-11T01:35:58.139Z,1.50
2023-12-11T01:38:24.907Z,1.23
2023-12-11T01:40:51.570Z,2.07
2023-12-11T01:43:20.271Z,1.80
2023-12-11T01:45:53.639Z,1.93
2023-12-11T01:48:20.481Z,2.10
2023-12-11T01:50:47.809Z,1.40
2023-12-11T01:53:14.595Z,1.30
2023-12-11T01:55:41.878Z,1.37
2023-12-11T01:58:08.884Z,2.53
2023-12-11T02:00:36.308Z,1.20
2023-12-11T02:03:03.785Z,1.50
2023-12-11T02:05:30.595Z,0.90
2023-12-11T02:07:57.344Z,1.63
2023-12-11T02:10:23.992Z,2.20
2023-12-11T02:12:51.096Z,1.37
2023-12-11T02:15:45.436Z,1.47
2023-12-11T02:18:14.576Z,1.93
2023-12-11T02:20:42.549Z,1.77
2023-12-11T02:23:17.922Z,1.53
2023-12-11T02:25:49.223Z,1.10
2023-12-11T02:28:15.881Z,0.93
2023-12-11T02:30:51.943Z,1.07
2023-12-11T02:33:19.014Z,1.87
2023-12-11T02:35:45.697Z,1.87
2023-12-11T02:38:12.379Z,1.80
2023-12-11T02:40:39.147Z,1.87
2023-12-11T02:43:06.612Z,1.30
2023-12-11T02:45:33.340Z,1.33
2023-12-11T02:48:04.116Z,2.87
2023-12-11T02:50:31.730Z,2.43
2023-12-11T02:52:59.591Z,1.83
2023-12-11T02:55:26.710Z,1.07
2023-12-11T02:57:58.149Z,1.23
2023-12-11T03:00:28.949Z,1.17
2023-12-11T03:02:56.056Z,1.20
2023-12-11T03:05:23.366Z,1.13
2023-12-11T03:07:50.693Z,0.60
2023-12-11T03:10:17.518Z,2.13
2023-12-11T03:12:44.297Z,1.30
2023-12-11T03:15:11.435Z,1.30
2023-12-11T03:17:38.250Z,1.63
2023-12-11T03:20:06.590Z,1.77
2023-12-11T03:22:33.338Z,1.50
2023-12-11T03:25:00.071Z,1.60
2023-12-11T03:27:27.218Z,1.37
2023-12-11T03:29:54.125Z,1.10
2023-12-11T03:32:20.829Z,1.10
2023-12-11T03:34:47.595Z,0.97
2023-12-11T03:37:14.403Z,1.73
2023-12-11T03:39:43.558Z,1.07
2023-12-11T03:42:10.839Z,0.90
2023-12-11T03:44:37.568Z,2.37
2023-12-11T03:47:04.382Z,1.20
2023-12-11T03:49:31.211Z,1.43
2023-12-11T03:51:57.987Z,1.87
2023-12-11T03:54:24.721Z,1.00
2023-12-11T03:56:51.478Z,1.43
2023-12-11T03:59:18.099Z,2.13
2023-12-11T04:01:46.234Z,0.97
2023-12-11T04:04:13.167Z,0.80
2023-12-11T04:06:39.958Z,1.13
2023-12-11T04:09:06.746Z,1.20
2023-12-11T04:11:34.113Z,0.90
2023-12-11T04:14:00.843Z,1.03
2023-12-11T04:16:27.909Z,1.20
2023-12-11T04:18:57.475Z,2.30
2023-12-11T04:21:26.143Z,1.43
2023-12-11T04:23:52.817Z,0.90
2023-12-11T04:26:19.524Z,1.43
2023-12-11T04:28:46.215Z,1.03
2023-12-11T04:31:13.004Z,1.10
2023-12-11T04:33:39.923Z,1.73
2023-12-11T04:36:10.024Z,1.93
2023-12-11T04:38:36.820Z,0.77
2023-12-11T04:41:04.122Z,1.13
2023-12-11T04:43:32.099Z,0.90
2023-12-11T04:46:00.019Z,1.27
2023-12-11T04:48:27.657Z,1.20
2023-12-11T04:50:54.463Z,1.10
2023-12-11T04:53:21.088Z,1.80
2023-12-11T04:55:47.843Z,1.20
2023-12-11T04:58:14.789Z,1.20
2023-12-11T05:00:41.715Z,1.07
2023-12-11T05:03:08.574Z,1.10
2023-12-11T05:05:36.986Z,1.13
2023-12-11T05:08:03.937Z,1.10
2023-12-11T05:10:30.623Z,0.77
2023-12-11T05:12:57.284Z,1.10
2023-12-11T05:15:23.923Z,2.03
2023-12-11T05:17:50.591Z,1.23
2023-12-11T05:20:19.473Z,1.37
2023-12-11T05:22:46.298Z,1.60
2023-12-11T05:25:13.336Z,1.60
2023-12-11T05:27:40.498Z,0.83
2023-12-11T05:30:08.287Z,1.33
2023-12-11T05:32:35.125Z,1.30
2023-12-11T05:35:01.847Z,1.07
2023-12-11T05:37:28.774Z,1.27
2023-12-11T05:40:01.794Z,0.70
2023-12-11T05:42:42.211Z,1.10
2023-12-11T05:45:10.545Z,1.20
2023-12-11T05:47:37.503Z,0.90
2023-12-11T05:50:04.807Z,0.70
2023-12-11T05:52:31.783Z,0.60
2023-12-11T05:54:58.680Z,0.93
2023-12-11T05:57:25.407Z,1.00
2023-12-11T05:59:52.190Z,1.13
2023-12-11T06:02:18.831Z,1.50
2023-12-11T06:04:45.509Z,1.10
2023-12-11T06:07:12.291Z,1.50
2023-12-11T06:09:39.138Z,1.33
2023-12-11T06:12:06.708Z,1.03
2023-12-11T06:14:33.320Z,1.37
2023-12-11T06:16:59.983Z,1.43
2023-12-11T06:19:26.719Z,1.23
2023-12-11T06:21:53.522Z,2.37
2023-12-11T06:24:20.187Z,0.70
2023-12-11T06:26:47.489Z,1.23
2023-12-11T06:29:14.217Z,2.73
2023-12-11T06:31:40.878Z,1.30
2023-12-11T06:34:07.687Z,1.53
2023-12-11T06:36:34.605Z,1.30
2023-12-11T06:39:02.630Z,1.70
2023-12-11T06:41:29.325Z,1.27
2023-12-11T06:43:58.557Z,1.40
2023-12-11T06:46:30.070Z,0.60
2023-12-11T06:48:57.983Z,2.20
2023-12-11T06:51:28.395Z,0.90
2023-12-11T06:54:00.009Z,1.20
2023-12-11T06:56:28.793Z,0.90
2023-12-11T06:58:55.432Z,1.57
2023-12-11T07:01:22.239Z,3.13
2023-12-11T07:03:50.080Z,2.70
2023-12-11T07:06:18.538Z,1.17
2023-12-11T07:08:45.344Z,2.67
2023-12-11T07:11:12.174Z,2.40
2023-12-11T07:13:40.952Z,1.03
2023-12-11T07:16:08.195Z,1.20
2023-12-11T07:18:35.077Z,3.30
2023-12-11T07:21:01.780Z,2.17
2023-12-11T07:23:28.543Z,1.33
2023-12-11T07:25:55.208Z,0.80
2023-12-11T07:28:21.892Z,1.77
2023-12-11T07:30:48.515Z,1.17
2023-12-11T07:33:15.334Z,2.53
2023-12-11T07:35:42.069Z,1.43
2023-12-11T07:38:09.108Z,3.90
2023-12-11T07:40:35.765Z,1.47
2023-12-11T07:43:02.382Z,1.23
2023-12-11T07:45:29.440Z,1.63
2023-12-11T07:47:56.158Z,2.33
2023-12-11T07:50:22.884Z,2.17
2023-12-11T07:52:49.554Z,2.80
2023-12-11T07:55:16.553Z,2.00
2023-12-11T07:57:43.984Z,2.70
2023-12-11T08:00:11.318Z,2.63
2023-12-11T08:02:38.532Z,1.37
2023-12-11T08:05:05.630Z,3.60
2023-12-11T08:07:32.450Z,2.27
2023-12-11T08:09:59.285Z,3.37
2023-12-11T08:12:26.898Z,1.27
2023-12-11T08:14:53.649Z,1.97
2023-12-11T08:17:20.381Z,0.90
2023-12-11T08:19:47.046Z,2.40
2023-12-11T08:22:14.600Z,1.30
2023-12-11T08:24:41.454Z,2.30
2023-12-11T08:27:08.711Z,2.17
2023-12-11T08:29:36.244Z,2.93
2023-12-11T08:32:05.221Z,2.93
2023-12-11T08:34:33.280Z,4.20
2023-12-11T08:37:00.046Z,2.37
2023-12-11T08:39:26.766Z,2.43
2023-12-11T08:41:53.491Z,3.87
2023-12-11T08:44:20.205Z,1.60
2023-12-11T08:46:46.953Z,2.77
2023-12-11T08:49:13.770Z,1.40
2023-12-11T08:51:41.146Z,2.57
2023-12-11T08:54:07.967Z,2.50
2023-12-11T08:56:34.637Z,2.80
2023-12-11T08:59:01.587Z,1.93
2023-12-11T09:01:29.501Z,1.83
2023-12-11T09:03:56.244Z,2.07
2023-12-11T09:06:24.048Z,2.67
2023-12-11T09:08:51.631Z,1.77
2023-12-11T09:11:18.345Z,1.30
2023-12-11T09:13:45.026Z,3.10
2023-12-11T09:16:11.766Z,3.80
2023-12-11T09:18:38.665Z,1.73
2023-12-11T09:21:06.015Z,2.07
2023-12-11T09:23:32.648Z,1.70
2023-12-11T09:25:59.328Z,1.70
2023-12-11T09:28:29.077Z,1.37
2023-12-11T09:30:58.228Z,1.93
2023-12-11T09:33:25.060Z,1.47
2023-12-11T09:35:52.376Z,2.43
2023-12-11T09:38:19.127Z,2.87
2023-12-11T09:40:45.785Z,2.00
2023-12-11T09:43:13.217Z,2.00
2023-12-11T09:45:40.695Z,1.70
2023-12-11T09:48:11.925Z,2.17
2023-12-11T09:50:41.911Z,1.83
2023-12-11T09:53:09.744Z,1.67
2023-12-11T09:55:36.483Z,1.57
2023-12-11T09:58:05.273Z,2.47
2023-12-11T10:00:32.309Z,1.47
2023-12-11T10:03:01.650Z,1.47
2023-12-11T10:05:28.762Z,1.67
2023-12-11T10:07:55.603Z,2.63
2023-12-11T10:10:26.895Z,1.20
2023-12-11T10:12:57.881Z,2.40
2023-12-11T10:15:26.948Z,1.00
2023-12-11T10:18:05.794Z,1.20
2023-12-11T10:20:37.460Z,2.27
2023-12-11T10:23:24.654Z,2.77
2023-12-11T10:26:05.199Z,1.97
2023-12-11T10:28:32.740Z,2.80
2023-12-11T10:31:03.974Z,2.03
2023-12-11T10:33:34.881Z,0.77
2023-12-11T10:36:13.112Z,1.90
2023-12-11T10:38:40.413Z,4.03
2023-12-11T10:41:07.883Z,2.60
2023-12-11T10:46:14.148Z,2.03
2023-12-11T10:48:41.828Z,1.47
2023-12-11T10:51:08.622Z,3.13
2023-12-11T10:53:35.657Z,1.63
2023-12-11T10:56:03.745Z,1.67
2023-12-11T10:58:30.523Z,1.20
2023-12-11T11:01:00.809Z,0.67
2023-12-11T11:03:28.556Z,1.23
2023-12-11T11:05:56.187Z,1.43
2023-12-11T11:08:41.722Z,1.57
2023-12-11T11:11:11.467Z,0.73
2023-12-11T11:13:49.879Z,1.97
2023-12-11T11:16:16.525Z,2.97
2023-12-11T11:19:09.973Z,3.90
2023-12-11T11:21:38.358Z,2.47
2023-12-11T11:24:27.011Z,2.70
2023-12-11T11:26:54.909Z,3.17
2023-12-11T11:29:45.279Z,1.83
2023-12-11T11:32:12.661Z,1.23
2023-12-11T11:34:42.276Z,1.13
2023-12-11T11:37:19.910Z,2.37
2023-12-11T11:40:06.196Z,1.90
2023-12-11T11:42:37.959Z,2.57
2023-12-11T11:45:08.770Z,1.93
2023-12-11T11:47:36.083Z,1.30
2023-12-11T11:50:11.454Z,2.20
2023-12-11T11:52:40.217Z,1.43
2023-12-11T11:55:10.082Z,1.57
2023-12-11T11:57:37.052Z,1.47
2023-12-11T12:00:07.115Z,1.07
2023-12-11T12:02:33.749Z,4.20
2023-12-11T12:05:11.724Z,2.60
2023-12-11T12:07:40.905Z,1.80
2023-12-11T12:10:13.926Z,1.47
2023-12-11T12:12:40.800Z,3.93
2023-12-11T12:15:11.479Z,2.07
2023-12-11T12:17:39.155Z,1.97
2023-12-11T12:20:11.029Z,0.93
2023-12-11T12:22:37.739Z,3.40
2023-12-11T12:25:13.118Z,1.50
2023-12-11T12:27:40.435Z,1.03
2023-12-11T12:30:07.891Z,0.70
2023-12-11T12:32:34.793Z,2.07
2023-12-11T12:35:01.824Z,1.73
2023-12-11T12:37:29.512Z,1.03
2023-12-11T12:39:58.010Z,2.17
2023-12-11T12:42:31.182Z,3.40
2023-12-11T12:44:57.905Z,0.87
2023-12-11T12:47:24.577Z,1.47
2023-12-11T12:49:51.284Z,0.90
2023-12-11T12:52:25.445Z,1.50
2023-12-11T12:54:54.421Z,1.60
2023-12-11T12:57:21.201Z,1.93
2023-12-11T12:59:48.115Z,1.10
2023-12-11T13:02:18.525Z,1.33
2023-12-11T13:04:55.517Z,1.07
2023-12-11T13:07:23.495Z,1.37
2023-12-11T13:09:51.194Z,2.37
2023-12-11T13:12:24.789Z,1.10
2023-12-11T13:14:51.635Z,2.60
2023-12-11T13:17:18.326Z,1.23
2023-12-11T13:19:45.142Z,1.63
2023-12-11T13:22:12.561Z,1.63
2023-12-11T13:24:39.828Z,1.83
2023-12-11T13:27:07.089Z,1.00
2023-12-11T13:29:33.774Z,1.93
2023-12-11T13:32:01.036Z,1.73
2023-12-11T13:34:27.931Z,0.80
2023-12-11T13:36:55.171Z,0.90
2023-12-11T13:39:21.892Z,1.73
2023-12-11T13:41:48.665Z,1.20
2023-12-11T13:44:15.315Z,2.30
2023-12-11T13:46:41.948Z,2.17
2023-12-11T13:49:08.719Z,1.73
2023-12-11T13:51:35.429Z,0.70
2023-12-11T13:54:02.891Z,1.23
2023-12-11T13:56:29.548Z,1.93
2023-12-11T13:58:56.158Z,0.90
2023-12-11T14:01:24.433Z,2.60
2023-12-11T14:03:51.490Z,1.70
2023-12-11T14:06:18.233Z,1.40
2023-12-11T14:08:45.470Z,1.87
2023-12-11T14:11:12.114Z,0.70
2023-12-11T14:13:38.701Z,1.90
2023-12-11T14:16:05.978Z,1.90
2023-12-11T14:18:35.066Z,2.53
2023-12-11T14:21:02.913Z,0.67
2023-12-11T14:23:29.903Z,1.80
2023-12-11T14:25:56.672Z,1.33
2023-12-11T14:28:23.347Z,1.43
2023-12-11T14:30:51.475Z,2.63
2023-12-11T14:33:18.425Z,3.27
2023-12-11T14:35:46.093Z,1.33
2023-12-11T14:38:12.828Z,1.30
2023-12-11T14:40:39.558Z,1.80
2023-12-11T14:43:06.266Z,1.10
2023-12-11T14:45:33.001Z,1.47
2023-12-11T14:47:59.889Z,1.27
2023-12-11T14:50:26.564Z,2.87
2023-12-11T14:52:54.077Z,2.73
2023-12-11T14:55:25.284Z,0.83
2023-12-11T14:57:53.019Z,1.30
2023-12-11T15:00:19.831Z,1.20
2023-12-11T15:02:46.455Z,1.50
2023-12-11T15:05:13.371Z,1.00
2023-12-11T15:07:40.174Z,2.40
2023-12-11T15:10:08.073Z,1.20
2023-12-11T15:12:36.698Z,1.30
2023-12-11T15:15:05.974Z,1.50
2023-12-11T15:17:33.244Z,2.97
2023-12-11T15:20:07.133Z,3.60
2023-12-11T15:22:33.872Z,1.30
2023-12-11T15:25:00.556Z,1.47
2023-12-11T15:27:27.358Z,1.83
2023-12-11T15:29:54.506Z,1.50
2023-12-11T15:32:21.244Z,1.80
2023-12-11T15:34:47.850Z,1.97
2023-12-11T15:37:14.570Z,1.17
2023-12-11T15:39:41.291Z,1.40
2023-12-11T15:42:07.930Z,1.10
2023-12-11T15:44:34.720Z,1.30
2023-12-11T15:47:01.365Z,1.77
2023-12-11T15:49:28.106Z,3.80
2023-12-11T15:51:55.751Z,1.90
2023-12-11T15:54:22.388Z,2.03
2023-12-11T15:56:49.017Z,3.67
2023-12-11T15:59:15.659Z,1.77
2023-12-11T16:01:43.752Z,3.53
2023-12-11T16:04:10.624Z,2.30
2023-12-11T16:06:37.302Z,0.63
2023-12-11T16:09:04.631Z,1.37
2023-12-11T16:11:34.366Z,3.50
2023-12-11T16:14:01.944Z,1.53
2023-12-11T16:16:28.758Z,0.83
2023-12-11T16:18:55.562Z,1.40
2023-12-11T16:21:22.572Z,1.47
2023-12-11T16:23:49.224Z,2.17
2023-12-11T16:26:16.091Z,1.93
2023-12-11T16:28:43.007Z,2.17
2023-12-11T16:31:09.932Z,2.60
2023-12-11T16:33:36.699Z,1.10
2023-12-11T16:36:03.656Z,1.73
2023-12-11T16:38:30.298Z,1.73
2023-12-11T16:40:56.995Z,3.53
2023-12-11T16:43:23.696Z,1.37
2023-12-11T16:45:50.498Z,1.83
2023-12-11T16:48:17.425Z,1.57
2023-12-11T16:50:44.864Z,2.93
2023-12-11T16:53:11.714Z,1.80
2023-12-11T16:55:38.484Z,1.40
2023-12-11T16:58:05.468Z,2.13
2023-12-11T17:00:32.256Z,2.87
2023-12-11T17:02:58.843Z,2.17
2023-12-11T17:05:25.613Z,1.00
2023-12-11T17:07:52.416Z,2.10
2023-12-11T17:10:19.165Z,2.63
2023-12-11T17:12:46.769Z,2.33
2023-12-11T17:15:13.457Z,2.20
2023-12-11T17:17:40.396Z,5.70
2023-12-11T17:20:07.815Z,8.27
2023-12-11T17:22:34.464Z,11.00
2023-12-11T17:25:03.642Z,6.33
2023-12-11T17:27:31.852Z,10.60
2023-12-11T17:30:00.687Z,8.40
2023-12-11T17:32:29.293Z,7.03
2023-12-11T17:34:56.947Z,10.87
2023-12-11T17:37:24.853Z,10.63
2023-12-11T17:39:54.105Z,8.83
2023-12-11T17:42:20.841Z,7.83
2023-12-11T17:44:47.556Z,9.13
2023-12-11T17:47:14.264Z,7.97
2023-12-11T17:49:41.599Z,9.03
2023-12-11T17:52:09.347Z,9.33
2023-12-11T17:54:36.325Z,8.33
2023-12-11T17:57:04.376Z,6.80
2023-12-11T17:59:31.287Z,6.03
2023-12-11T18:01:57.985Z,8.50
2023-12-11T18:04:24.772Z,5.17
2023-12-11T18:06:51.690Z,5.43
2023-12-11T18:09:18.359Z,5.33
2023-12-11T18:11:45.029Z,6.47
2023-12-11T18:14:11.698Z,9.57
2023-12-11T18:16:38.440Z,7.27
2023-12-11T18:19:05.220Z,8.87
2023-12-11T18:21:31.844Z,7.80
2023-12-11T18:23:58.453Z,6.90
2023-12-11T18:26:25.050Z,8.17
2023-12-11T18:28:51.746Z,4.90
2023-12-11T18:31:18.478Z,7.37
2023-12-11T18:33:45.564Z,6.27
2023-12-11T18:36:12.309Z,6.43
2023-12-11T18:38:38.965Z,5.47
2023-12-11T18:41:06.470Z,6.43
2023-12-11T18:43:33.159Z,7.67
2023-12-11T18:45:59.901Z,5.83
2023-12-11T18:48:26.972Z,6.13
2023-12-11T18:50:53.785Z,7.17
2023-12-11T18:53:21.429Z,5.83
2023-12-11T18:56:00.498Z,4.90
2023-12-11T18:58:28.872Z,5.80
2023-12-11T19:00:55.653Z,7.40
2023-12-11T19:03:22.284Z,4.30
2023-12-11T19:05:48.912Z,4.60
2023-12-11T19:08:15.572Z,5.00
2023-12-11T19:10:42.257Z,4.33
2023-12-11T19:13:08.912Z,4.53
2023-12-11T19:15:35.498Z,3.40
2023-12-11T19:18:02.448Z,5.10
2023-12-11T19:20:29.117Z,5.43
2023-12-11T19:22:55.813Z,4.97
2023-12-11T19:25:22.531Z,6.13
2023-12-11T19:27:49.697Z,3.63
2023-12-11T19:30:16.489Z,4.87
2023-12-11T19:32:43.228Z,4.30
2023-12-11T19:35:09.951Z,3.67
2023-12-11T19:37:36.657Z,6.07
2023-12-11T19:40:04.324Z,3.37
2023-12-11T19:42:31.016Z,4.43
2023-12-11T19:44:57.714Z,5.10
2023-12-11T19:47:24.732Z,7.00
2023-12-11T19:49:51.622Z,2.37
2023-12-11T19:52:19.089Z,4.87
2023-12-11T19:54:46.545Z,4.17
2023-12-11T19:57:13.471Z,6.10
2023-12-11T19:59:40.111Z,8.43
2023-12-11T20:02:09.364Z,7.63
2023-12-11T20:04:37.219Z,8.30
2023-12-11T20:07:04.318Z,8.47
2023-12-11T20:09:33.524Z,7.17
2023-12-11T20:12:07.589Z,7.93
2023-12-11T20:14:40.462Z,12.63
2023-12-11T20:17:07.251Z,10.77
2023-12-11T20:19:33.943Z,7.17
2023-12-11T20:22:00.881Z,8.47
2023-12-11T20:24:27.517Z,6.73
2023-12-11T20:26:54.491Z,7.87
2023-12-11T20:29:21.162Z,10.20
2023-12-11T20:31:48.560Z,14.33
2023-12-11T20:34:15.241Z,9.43
2023-12-11T20:36:41.970Z,10.00
2023-12-11T20:39:08.874Z,8.77
2023-12-11T20:41:35.555Z,11.03
2023-12-11T20:44:05.170Z,6.83
2023-12-11T20:46:32.690Z,7.83
2023-12-11T20:49:00.293Z,8.17
2023-12-11T20:51:28.178Z,9.43
2023-12-11T20:53:54.955Z,8.23
2023-12-11T20:56:23.930Z,10.50
2023-12-11T20:58:51.847Z,10.17
2023-12-11T21:01:34.537Z,13.07
2023-12-11T21:04:03.335Z,10.10
2023-12-11T21:06:30.777Z,11.10
2023-12-11T21:08:59.542Z,7.73
2023-12-11T21:11:27.523Z,10.00
2023-12-11T21:13:54.435Z,8.30
2023-12-11T21:16:21.524Z,10.93
2023-12-11T21:18:48.726Z,7.83
2023-12-11T21:21:22.690Z,7.83
2023-12-11T21:23:50.197Z,10.13
2023-12-11T21:26:26.487Z,6.17
2023-12-11T21:28:54.206Z,9.77
2023-12-11T21:31:26.786Z,7.23
2023-12-11T21:33:54.823Z,8.50
2023-12-11T21:36:25.864Z,9.33
2023-12-11T21:38:52.522Z,10.10
2023-12-11T21:41:19.675Z,11.07
2023-12-11T21:43:49.236Z,6.63
2023-12-11T21:46:17.096Z,9.17
2023-12-11T21:48:44.584Z,9.83
2023-12-11T21:51:19.138Z,8.87
2023-12-11T21:53:46.981Z,6.90
2023-12-11T21:56:14.636Z,7.07
2023-12-11T21:58:42.494Z,9.03
2023-12-11T22:01:09.633Z,6.80
2023-12-11T22:03:36.399Z,7.53
2023-12-11T22:06:03.627Z,4.43
2023-12-11T22:08:30.386Z,6.20
2023-12-11T22:10:57.082Z,8.57
2023-12-11T22:13:23.742Z,6.00
2023-12-11T22:15:50.459Z,8.23
2023-12-11T22:18:17.584Z,8.77
2023-12-11T22:20:44.541Z,6.93
2023-12-11T22:23:11.863Z,6.63
2023-12-11T22:25:38.654Z,6.87
2023-12-11T22:28:05.507Z,7.10
2023-12-11T22:30:32.418Z,8.80
2023-12-11T22:32:59.672Z,7.67
2023-12-11T22:35:26.308Z,5.00
2023-12-11T22:37:52.921Z,8.73
2023-12-11T22:40:19.814Z,7.00
2023-12-11T22:42:48.017Z,8.53
2023-12-11T22:45:15.610Z,5.20
2023-12-11T22:47:42.377Z,5.67
2023-12-11T22:50:09.957Z,5.30
2023-12-11T22:52:36.777Z,5.53
2023-12-11T22:55:03.589Z,4.27
2023-12-11T22:57:30.544Z,3.77
2023-12-11T22:59:57.565Z,6.97
2023-12-11T23:02:24.219Z,4.17
2023-12-11T23:04:51.001Z,4.70
2023-12-11T23:07:18.086Z,6.13
2023-12-11T23:09:44.650Z,6.07
2023-12-11T23:12:11.219Z,4.57
2023-12-11T23:14:37.851Z,4.13
2023-12-11T23:17:04.660Z,5.43
2023-12-11T23:19:31.334Z,6.03
2023-12-11T23:21:57.986Z,5.77
2023-12-11T23:24:24.685Z,5.10
2023-12-11T23:26:51.348Z,3.93
2023-12-11T23:29:18.064Z,4.73
2023-12-11T23:31:44.670Z,4.80
2023-12-11T23:34:11.352Z,6.30
2023-12-11T23:36:38.001Z,3.87
2023-12-11T23:39:04.578Z,5.13
2023-12-11T23:41:31.470Z,4.43
2023-12-11T23:43:58.100Z,3.73
2023-12-11T23:46:24.791Z,3.57
2023-12-11T23:48:51.637Z,5.40
2023-12-11T23:51:18.697Z,6.20
2023-12-11T23:53:45.762Z,4.70
2023-12-11T23:56:12.857Z,5.77
2023-12-11T23:58:39.534Z,4.47
